createdAt,value
2018-07-17T00:01:47.095Z,56.36
2018-07-17T00:04:14.992Z,56.89
2018-07-17T00:06:42.609Z,56.98
2018-07-17T00:09:10.122Z,56.81
2018-07-17T00:11:37.889Z,56.58
2018-07-17T00:14:05.534Z,57.20
2018-07-17T00:16:33.166Z,57.02
2018-07-17T00:19:01.076Z,56.83
2018-07-17T00:21:28.709Z,56.71
2018-07-17T00:23:56.236Z,57.33
2018-07-17T00:26:24.098Z,56.83
2018-07-17T00:28:51.683Z,57.16
2018-07-17T00:31:19.300Z,57.18
2018-07-17T00:33:47.193Z,57.32
2018-07-17T00:36:14.739Z,57.59
2018-07-17T00:38:42.344Z,57.31
2018-07-17T00:41:10.379Z,57.29
2018-07-17T00:43:38.025Z,57.72
2018-07-17T00:46:05.618Z,57.46
2018-07-17T00:48:33.557Z,57.60
2018-07-17T00:51:01.187Z,57.60
2018-07-17T00:53:28.735Z,58.13
2018-07-17T00:55:56.585Z,57.89
2018-07-17T00:58:24.109Z,58.55
2018-07-17T01:00:51.083Z,58.35
2018-07-17T01:03:24.347Z,58.35
2018-07-17T01:05:57.390Z,58.07
2018-07-17T01:08:30.693Z,57.75
2018-07-17T01:11:03.738Z,57.67
2018-07-17T01:13:41.984Z,57.92
2018-07-17T01:16:09.654Z,58.08
2018-07-17T01:18:37.749Z,57.65
2018-07-17T01:21:05.316Z,57.59
2018-07-17T01:23:32.851Z,57.67
2018-07-17T01:26:00.925Z,57.71
2018-07-17T01:28:28.486Z,58.02
2018-07-17T01:30:56.080Z,58.33
2018-07-17T01:33:24.100Z,58.07
2018-07-17T01:35:51.683Z,58.32
2018-07-17T01:38:19.311Z,58.60
2018-07-17T01:40:47.126Z,58.47
2018-07-17T01:43:14.719Z,58.59
2018-07-17T01:45:42.311Z,58.29
2018-07-17T01:48:10.322Z,58.54
2018-07-17T01:50:37.935Z,58.33
2018-07-17T01:53:05.520Z,58.73
2018-07-17T01:55:33.388Z,58.57
2018-07-17T01:58:00.944Z,58.90
2018-07-17T02:00:28.527Z,59.02
2018-07-17T02:02:56.165Z,58.76
2018-07-17T02:05:23.827Z,58.97
2018-07-17T02:07:51.335Z,58.87
2018-07-17T02:10:19.313Z,59.17
2018-07-17T02:12:46.903Z,58.84
2018-07-17T02:15:14.448Z,58.75
2018-07-17T02:17:42.390Z,58.89
2018-07-17T02:20:10.288Z,59.46
2018-07-17T02:22:37.848Z,59.06
2018-07-17T02:25:05.757Z,59.17
2018-07-17T02:27:33.304Z,58.86
2018-07-17T02:30:00.843Z,59.22
2018-07-17T02:32:28.489Z,58.80
2018-07-17T02:34:56.067Z,58.95
2018-07-17T02:37:23.712Z,59.26
2018-07-17T02:39:51.386Z,59.24
2018-07-17T02:42:19.015Z,59.19
2018-07-17T02:44:46.564Z,58.76
2018-07-17T02:47:14.271Z,58.77
2018-07-17T02:49:41.789Z,58.94
2018-07-17T02:52:09.339Z,59.24
2018-07-17T02:54:37.203Z,59.27
2018-07-17T02:57:04.759Z,59.50
2018-07-17T02:59:32.310Z,59.36
2018-07-17T03:02:00.192Z,59.07
2018-07-17T03:04:27.741Z,59.08
2018-07-17T03:06:55.407Z,59.42
2018-07-17T03:09:23.122Z,59.19
2018-07-17T03:11:50.657Z,59.23
2018-07-17T03:14:18.226Z,59.42
2018-07-17T03:16:46.079Z,59.61
2018-07-17T03:19:13.683Z,59.39
2018-07-17T03:21:41.578Z,59.44
2018-07-17T03:24:09.406Z,59.79
2018-07-17T03:26:36.992Z,59.15
2018-07-17T03:29:04.798Z,59.34
2018-07-17T03:31:32.553Z,59.71
2018-07-17T03:34:00.487Z,59.18
2018-07-17T03:36:28.238Z,59.63
2018-07-17T03:38:55.774Z,59.36
2018-07-17T03:41:23.386Z,59.38
2018-07-17T03:43:51.144Z,59.85
2018-07-17T03:46:19.012Z,59.82
2018-07-17T03:48:46.805Z,59.68
2018-07-17T03:51:45.467Z,59.63
2018-07-17T03:54:13.142Z,59.78
2018-07-17T03:56:40.683Z,59.36
2018-07-17T03:59:08.410Z,59.51
2018-07-17T04:01:35.919Z,59.72
2018-07-17T04:04:03.527Z,59.73
2018-07-17T04:06:31.475Z,59.69
2018-07-17T04:08:59.011Z,59.82
2018-07-17T04:11:26.541Z,59.36
2018-07-17T04:13:54.404Z,59.28
2018-07-17T04:16:22.093Z,59.17
2018-07-17T04:18:49.658Z,59.68
2018-07-17T04:21:17.549Z,59.40
2018-07-17T04:23:45.283Z,59.27
2018-07-17T04:26:12.909Z,59.46
2018-07-17T04:28:40.967Z,59.44
2018-07-17T04:31:08.633Z,59.26
2018-07-17T04:33:36.225Z,59.23
2018-07-17T04:36:04.175Z,59.62
2018-07-17T04:38:31.793Z,59.19
2018-07-17T04:40:59.291Z,59.45
2018-07-17T04:43:27.154Z,59.09
2018-07-17T04:45:54.732Z,59.35
2018-07-17T04:48:22.274Z,59.58
2018-07-17T04:50:50.080Z,59.54
2018-07-17T04:53:17.654Z,59.12
2018-07-17T04:55:45.250Z,58.97
2018-07-17T04:58:13.014Z,59.40
2018-07-17T05:00:40.594Z,58.87
2018-07-17T05:03:08.189Z,59.24
2018-07-17T05:05:36.158Z,58.62
2018-07-17T05:08:18.257Z,58.94
2018-07-17T05:10:45.993Z,58.34
2018-07-17T05:13:13.503Z,58.56
2018-07-17T05:15:41.026Z,57.86
2018-07-17T05:18:08.997Z,58.18
2018-07-17T05:20:36.574Z,57.73
2018-07-17T05:23:04.248Z,57.20
2018-07-17T05:25:32.251Z,57.34
2018-07-17T05:27:59.818Z,57.33
2018-07-17T05:30:27.398Z,57.28
2018-07-17T05:32:55.305Z,56.81
2018-07-17T05:35:22.879Z,57.12
2018-07-17T05:37:50.430Z,56.21
2018-07-17T05:40:18.307Z,56.40
2018-07-17T05:42:45.922Z,56.00
2018-07-17T05:45:13.502Z,55.76
2018-07-17T05:47:41.603Z,56.02
2018-07-17T05:50:10.452Z,55.12
2018-07-17T05:52:38.050Z,54.78
2018-07-17T05:55:06.055Z,55.03
2018-07-17T05:57:33.613Z,54.91
2018-07-17T06:00:01.132Z,54.14
2018-07-17T06:02:28.967Z,54.19
2018-07-17T06:04:56.541Z,53.67
2018-07-17T06:07:24.109Z,53.04
2018-07-17T06:09:52.010Z,52.40
2018-07-17T06:12:19.713Z,52.00
2018-07-17T06:14:47.289Z,51.97
2018-07-17T06:17:14.895Z,51.78
2018-07-17T06:19:42.412Z,51.54
2018-07-17T06:22:09.991Z,51.32
2018-07-17T06:24:37.787Z,51.67
2018-07-17T06:27:05.758Z,51.30
2018-07-17T06:29:33.403Z,51.15
2018-07-17T06:32:01.225Z,50.60
2018-07-17T06:34:28.776Z,50.48
2018-07-17T06:36:56.452Z,50.88
2018-07-17T06:39:24.322Z,50.34
2018-07-17T06:41:51.938Z,49.75
2018-07-17T06:44:19.494Z,49.79
2018-07-17T06:46:47.501Z,49.05
2018-07-17T06:49:15.152Z,48.95
2018-07-17T06:51:43.564Z,48.92
2018-07-17T06:54:11.463Z,49.21
2018-07-17T06:56:38.993Z,48.41
2018-07-17T06:59:06.675Z,48.93
2018-07-17T07:01:34.724Z,48.59
2018-07-17T07:04:02.325Z,47.92
2018-07-17T07:06:29.922Z,48.23
2018-07-17T07:08:57.721Z,47.63
2018-07-17T07:11:25.260Z,47.43
2018-07-17T07:13:52.832Z,47.79
2018-07-17T07:16:20.890Z,47.11
2018-07-17T07:18:48.456Z,47.11
2018-07-17T07:21:16.010Z,46.61
2018-07-17T07:23:43.911Z,46.94
2018-07-17T07:26:11.495Z,46.19
2018-07-17T07:28:39.298Z,46.27
2018-07-17T07:31:07.251Z,46.39
2018-07-17T07:33:34.718Z,46.46
2018-07-17T07:36:02.295Z,46.34
2018-07-17T07:38:30.273Z,45.61
2018-07-17T07:40:57.851Z,45.73
2018-07-17T07:43:25.394Z,45.18
2018-07-17T07:45:53.261Z,45.54
2018-07-17T07:48:20.884Z,44.91
2018-07-17T07:50:48.467Z,44.61
2018-07-17T07:53:16.258Z,44.91
2018-07-17T07:55:43.963Z,44.83
2018-07-17T07:58:11.508Z,44.46
2018-07-17T08:00:39.570Z,44.32
2018-07-17T08:03:07.106Z,43.75
2018-07-17T08:05:34.713Z,43.43
2018-07-17T08:08:02.456Z,43.18
2018-07-17T08:10:30.008Z,43.22
2018-07-17T08:12:57.655Z,43.08
2018-07-17T08:15:25.425Z,43.13
2018-07-17T08:17:52.947Z,42.28
2018-07-17T08:20:20.473Z,41.96
2018-07-17T08:22:48.302Z,41.74
2018-07-17T08:25:15.959Z,41.91
2018-07-17T08:27:43.452Z,41.97
2018-07-17T08:30:11.334Z,41.75
2018-07-17T08:32:38.881Z,41.39
2018-07-17T08:35:06.469Z,41.02
2018-07-17T08:37:34.198Z,41.06
2018-07-17T08:40:01.842Z,40.32
2018-07-17T08:42:29.509Z,40.80
2018-07-17T08:44:57.628Z,40.49
2018-07-17T08:47:25.183Z,39.87
2018-07-17T08:49:52.791Z,39.70
2018-07-17T08:52:20.380Z,39.59
2018-07-17T08:54:48.059Z,39.49
2018-07-17T08:57:15.728Z,39.10
2018-07-17T08:59:43.530Z,38.87
2018-07-17T09:02:11.189Z,39.33
2018-07-17T09:04:38.712Z,38.99
2018-07-17T09:07:06.709Z,38.75
2018-07-17T09:09:34.308Z,39.20
2018-07-17T09:12:01.924Z,38.50
2018-07-17T09:14:29.749Z,38.59
2018-07-17T09:16:57.322Z,38.58
2018-07-17T09:19:24.863Z,37.71
2018-07-17T09:21:52.596Z,37.43
2018-07-17T09:24:20.148Z,37.47
2018-07-17T09:26:47.752Z,37.43
2018-07-17T09:29:15.399Z,37.70
2018-07-17T09:31:43.083Z,37.83
2018-07-17T09:34:10.646Z,37.70
2018-07-17T09:36:38.376Z,37.19
2018-07-17T09:39:07.260Z,37.13
2018-07-17T09:41:34.813Z,37.47
2018-07-17T09:44:02.735Z,37.33
2018-07-17T09:46:30.496Z,36.94
2018-07-17T09:48:58.037Z,37.19
2018-07-17T09:51:25.687Z,37.21
2018-07-17T09:53:53.327Z,36.63
2018-07-17T09:56:21.195Z,36.72
2018-07-17T09:58:49.094Z,36.19
2018-07-17T10:01:22.322Z,35.74
2018-07-17T10:03:50.122Z,35.68
2018-07-17T10:06:17.891Z,35.79
2018-07-17T10:08:45.585Z,35.31
2018-07-17T10:11:13.409Z,34.71
2018-07-17T10:13:41.027Z,34.54
2018-07-17T10:16:08.655Z,34.80
2018-07-17T10:18:36.379Z,34.07
2018-07-17T10:21:04.207Z,34.24
2018-07-17T10:23:31.782Z,33.15
2018-07-17T10:25:59.463Z,33.32
2018-07-17T10:28:27.364Z,33.10
2018-07-17T10:30:54.935Z,32.94
2018-07-17T10:33:22.887Z,32.46
2018-07-17T10:35:50.620Z,32.15
2018-07-17T10:38:18.293Z,31.13
2018-07-17T10:40:45.993Z,31.35
2018-07-17T10:43:13.742Z,31.38
2018-07-17T10:45:41.277Z,30.87
2018-07-17T10:48:09.084Z,30.81
2018-07-17T10:50:36.625Z,31.21
2018-07-17T10:53:04.239Z,30.81
2018-07-17T10:55:31.984Z,30.00
2018-07-17T10:57:59.794Z,30.85
2018-07-17T11:00:27.378Z,30.72
2018-07-17T11:02:55.136Z,30.38
2018-07-17T11:05:22.781Z,30.70
2018-07-17T11:07:50.368Z,30.31
2018-07-17T11:10:18.082Z,30.54
2018-07-17T11:12:45.761Z,29.90
2018-07-17T11:15:13.456Z,30.32
2018-07-17T11:17:41.135Z,30.17
2018-07-17T11:20:08.779Z,29.55
2018-07-17T11:22:36.430Z,29.70
2018-07-17T11:25:04.041Z,29.41
2018-07-17T11:27:31.574Z,29.91
2018-07-17T11:29:59.151Z,29.48
2018-07-17T11:32:27.035Z,29.13
2018-07-17T11:34:54.742Z,29.28
2018-07-17T11:37:22.366Z,30.05
2018-07-17T11:39:49.984Z,29.19
2018-07-17T11:42:17.618Z,29.04
2018-07-17T11:44:45.191Z,28.71
2018-07-17T11:47:12.848Z,28.90
2018-07-17T11:49:40.662Z,29.29
2018-07-17T11:52:08.174Z,28.98
2018-07-17T11:54:35.835Z,29.24
2018-07-17T11:57:03.608Z,29.59
2018-07-17T11:59:31.265Z,28.91
2018-07-17T12:01:58.928Z,28.84
2018-07-17T12:04:26.667Z,29.28
2018-07-17T12:06:54.626Z,29.00
2018-07-17T12:09:22.423Z,28.86
2018-07-17T12:11:50.070Z,29.10
2018-07-17T12:14:17.630Z,28.99
2018-07-17T12:16:45.309Z,28.92
2018-07-17T12:19:12.922Z,28.64
2018-07-17T12:21:40.473Z,28.79
2018-07-17T12:24:08.093Z,27.98
2018-07-17T12:26:35.853Z,28.42
2018-07-17T12:29:03.459Z,28.42
2018-07-17T12:31:31.269Z,27.85
2018-07-17T12:33:58.835Z,28.38
2018-07-17T12:36:26.654Z,27.91
2018-07-17T12:38:54.372Z,28.35
2018-07-17T12:41:22.244Z,28.72
2018-07-17T12:43:49.831Z,28.57
2018-07-17T12:46:17.545Z,27.95
2018-07-17T12:48:44.495Z,27.83
2018-07-17T12:51:11.398Z,27.64
2018-07-17T12:53:38.452Z,27.48
2018-07-17T12:56:05.363Z,27.19
2018-07-17T12:58:32.352Z,26.95
2018-07-17T13:00:59.587Z,26.47
2018-07-17T13:03:26.602Z,27.01
2018-07-17T13:05:53.606Z,27.11
2018-07-17T13:08:20.733Z,27.20
2018-07-17T13:10:47.694Z,27.24
2018-07-17T13:13:14.681Z,26.76
2018-07-17T13:15:41.626Z,27.23
2018-07-17T13:18:08.562Z,27.10
2018-07-17T13:20:35.520Z,26.51
2018-07-17T13:23:02.552Z,27.06
2018-07-17T13:25:29.789Z,26.71
2018-07-17T13:27:56.723Z,27.60
2018-07-17T13:30:23.906Z,27.41
2018-07-17T13:32:51.002Z,27.61
2018-07-17T13:35:17.962Z,27.62
2018-07-17T13:37:45.316Z,27.87
2018-07-17T13:40:12.502Z,27.33
2018-07-17T13:42:39.469Z,28.00
2018-07-17T13:45:06.461Z,27.94
2018-07-17T13:47:33.519Z,28.17
2018-07-17T13:50:00.623Z,27.60
2018-07-17T13:52:28.515Z,27.66
2018-07-17T13:54:55.603Z,27.93
2018-07-17T13:57:22.590Z,28.07
2018-07-17T13:59:49.798Z,28.52
2018-07-17T14:02:17.030Z,27.69
2018-07-17T14:04:44.048Z,28.62
2018-07-17T14:07:11.120Z,28.47
2018-07-17T14:09:38.168Z,28.22
2018-07-17T14:12:05.180Z,28.58
2018-07-17T14:14:32.301Z,28.90
2018-07-17T14:16:59.413Z,28.99
2018-07-17T14:19:26.396Z,28.92
2018-07-17T14:21:53.445Z,28.55
2018-07-17T14:24:20.555Z,28.66
2018-07-17T14:26:47.717Z,29.25
2018-07-17T14:29:14.843Z,28.98
2018-07-17T14:31:42.055Z,29.11
2018-07-17T14:34:08.971Z,28.91
2018-07-17T14:36:35.946Z,28.73
2018-07-17T14:39:03.510Z,29.33
2018-07-17T14:41:58.660Z,29.76
2018-07-17T14:44:25.661Z,29.67
2018-07-17T14:46:52.683Z,29.93
2018-07-17T14:49:19.776Z,29.64
2018-07-17T14:51:46.785Z,30.52
2018-07-17T14:54:13.754Z,30.76
2018-07-17T14:56:40.867Z,30.61
2018-07-17T14:59:08.101Z,30.06
2018-07-17T15:01:35.075Z,30.35
2018-07-17T15:04:02.193Z,30.30
2018-07-17T15:06:29.195Z,30.46
2018-07-17T15:08:58.535Z,32.06
2018-07-17T15:11:26.440Z,33.27
2018-07-17T15:13:54.173Z,32.55
2018-07-17T15:16:21.798Z,31.41
2018-07-17T15:18:49.559Z,31.06
2018-07-17T15:21:17.237Z,31.28
2018-07-17T15:23:44.830Z,30.66
2018-07-17T15:26:12.439Z,30.60
2018-07-17T15:28:40.082Z,30.93
2018-07-17T15:31:07.706Z,31.14
2018-07-17T15:33:35.396Z,31.33
2018-07-17T15:36:02.974Z,30.92
2018-07-17T15:38:30.686Z,30.38
2018-07-17T15:40:58.648Z,30.82
2018-07-17T15:43:26.528Z,30.13
2018-07-17T15:45:54.148Z,30.60
2018-07-17T15:48:21.880Z,30.68
2018-07-17T15:50:49.423Z,30.62
2018-07-17T15:53:16.973Z,30.44
2018-07-17T15:55:44.534Z,30.66
2018-07-17T15:58:12.362Z,30.22
2018-07-17T16:00:39.896Z,30.55
2018-07-17T16:03:07.569Z,30.49
2018-07-17T16:05:35.110Z,29.95
2018-07-17T16:08:02.698Z,30.19
2018-07-17T16:10:30.419Z,29.86
2018-07-17T16:12:58.148Z,30.49
2018-07-17T16:15:25.748Z,30.30
2018-07-17T16:17:53.426Z,30.18
2018-07-17T16:20:20.959Z,30.02
2018-07-17T16:22:48.577Z,30.00
2018-07-17T16:25:16.404Z,30.22
2018-07-17T16:27:44.003Z,30.17
2018-07-17T16:30:11.552Z,30.55
2018-07-17T16:32:39.231Z,29.89
2018-07-17T16:35:07.202Z,30.13
2018-07-17T16:37:34.805Z,30.34
2018-07-17T16:40:02.599Z,30.06
2018-07-17T16:42:30.532Z,30.11
2018-07-17T16:44:58.115Z,30.14
2018-07-17T16:47:25.807Z,29.77
2018-07-17T16:49:53.519Z,30.40
2018-07-17T16:52:21.067Z,29.82
2018-07-17T16:54:48.801Z,30.67
2018-07-17T16:57:16.396Z,30.23
2018-07-17T16:59:43.969Z,30.47
2018-07-17T17:02:11.567Z,29.99
2018-07-17T17:04:39.172Z,30.31
2018-07-17T17:07:06.759Z,30.17
2018-07-17T17:09:34.670Z,30.46
2018-07-17T17:12:02.321Z,30.24
2018-07-17T17:14:29.981Z,30.72
2018-07-17T17:16:57.726Z,30.48
2018-07-17T17:19:25.339Z,30.97
2018-07-17T17:21:52.937Z,30.74
2018-07-17T17:24:20.830Z,30.62
2018-07-17T17:26:48.412Z,31.12
2018-07-17T17:29:15.956Z,30.93
2018-07-17T17:31:43.542Z,31.37
2018-07-17T17:34:11.161Z,31.20
2018-07-17T17:36:38.700Z,30.86
2018-07-17T17:39:08.016Z,31.20
2018-07-17T17:41:35.685Z,31.06
2018-07-17T17:44:04.579Z,31.16
2018-07-17T17:46:32.442Z,31.22
2018-07-17T17:49:00.148Z,31.58
2018-07-17T17:51:27.768Z,31.34
2018-07-17T17:53:55.418Z,31.60
2018-07-17T17:56:23.034Z,31.64
2018-07-17T17:58:50.617Z,31.16
2018-07-17T18:01:18.462Z,32.19
2018-07-17T18:03:46.226Z,31.46
2018-07-17T18:06:13.731Z,32.04
2018-07-17T18:08:41.443Z,31.73
2018-07-17T18:11:09.149Z,32.32
2018-07-17T18:13:36.669Z,32.29
2018-07-17T18:16:04.453Z,32.40
2018-07-17T18:18:32.228Z,32.16
2018-07-17T18:20:59.832Z,32.07
2018-07-17T18:23:27.563Z,32.95
2018-07-17T18:25:55.163Z,32.55
2018-07-17T18:28:22.764Z,32.36
2018-07-17T18:30:50.461Z,32.93
2018-07-17T18:33:18.058Z,32.89
2018-07-17T18:35:45.598Z,32.80
2018-07-17T18:38:13.222Z,33.42
2018-07-17T18:40:40.915Z,33.18
2018-07-17T18:43:08.442Z,33.09
2018-07-17T18:45:36.336Z,33.27
2018-07-17T18:48:03.967Z,33.55
2018-07-17T18:50:31.656Z,33.84
2018-07-17T18:52:59.490Z,33.50
2018-07-17T18:55:27.171Z,33.73
2018-07-17T18:57:54.767Z,34.54
2018-07-17T19:00:22.546Z,33.96
2018-07-17T19:02:50.229Z,34.16
2018-07-17T19:05:17.888Z,34.21
2018-07-17T19:07:45.980Z,34.84
2018-07-17T19:10:13.628Z,35.01
2018-07-17T19:12:41.176Z,35.30
2018-07-17T19:15:09.060Z,35.38
2018-07-17T19:17:36.708Z,35.04
2018-07-17T19:20:04.294Z,35.50
2018-07-17T19:22:32.095Z,35.18
2018-07-17T19:24:59.667Z,35.59
2018-07-17T19:27:27.172Z,35.25
2018-07-17T19:29:54.903Z,35.53
2018-07-17T19:32:22.463Z,35.58
2018-07-17T19:34:50.077Z,36.31
2018-07-17T19:37:17.849Z,36.09
2018-07-17T19:39:45.456Z,36.57
2018-07-17T19:42:13.077Z,36.49
2018-07-17T19:44:40.698Z,36.53
2018-07-17T19:47:08.429Z,37.32
2018-07-17T19:49:36.045Z,37.23
2018-07-17T19:52:03.884Z,37.19
2018-07-17T19:54:31.583Z,37.24
2018-07-17T19:56:59.125Z,37.71
2018-07-17T19:59:26.939Z,37.83
2018-07-17T20:01:54.771Z,38.36
2018-07-17T20:04:22.303Z,38.41
2018-07-17T20:06:49.931Z,39.11
2018-07-17T20:09:17.653Z,39.39
2018-07-17T20:11:45.187Z,39.02
2018-07-17T20:14:12.993Z,39.75
2018-07-17T20:16:40.768Z,39.93
2018-07-17T20:19:08.420Z,39.54
2018-07-17T20:21:35.968Z,39.86
2018-07-17T20:24:03.716Z,40.17
2018-07-17T20:26:31.317Z,40.92
2018-07-17T20:28:58.908Z,41.22
2018-07-17T20:31:26.782Z,41.37
2018-07-17T20:33:54.359Z,41.55
2018-07-17T20:36:21.881Z,41.25
2018-07-17T20:38:49.651Z,41.43
2018-07-17T20:41:17.252Z,42.33
2018-07-17T20:43:44.999Z,42.61
2018-07-17T20:46:12.681Z,42.78
2018-07-17T20:48:40.514Z,42.57
2018-07-17T20:51:08.788Z,42.95
2018-07-17T20:53:36.485Z,43.14
2018-07-17T20:56:04.143Z,43.33
2018-07-17T20:58:32.917Z,42.93
2018-07-17T21:01:00.568Z,43.08
2018-07-17T21:03:28.123Z,43.74
2018-07-17T21:05:55.730Z,43.58
2018-07-17T21:08:23.329Z,43.29
2018-07-17T21:10:50.907Z,43.23
2018-07-17T21:13:18.801Z,43.27
2018-07-17T21:15:46.431Z,43.31
2018-07-17T21:18:13.962Z,43.42
2018-07-17T21:20:41.622Z,43.57
2018-07-17T21:23:09.186Z,44.13
2018-07-17T21:25:36.865Z,43.80
2018-07-17T21:28:04.735Z,43.92
2018-07-17T21:30:32.586Z,44.36
2018-07-17T21:33:00.157Z,44.70
2018-07-17T21:35:27.906Z,44.49
2018-07-17T21:37:55.673Z,44.59
2018-07-17T21:40:23.141Z,44.59
2018-07-17T21:42:50.761Z,44.87
2018-07-17T21:45:18.656Z,44.67
2018-07-17T21:47:46.264Z,44.81
2018-07-17T21:50:13.977Z,45.59
2018-07-17T21:52:41.677Z,45.18
2018-07-17T21:55:09.252Z,45.68
2018-07-17T21:57:37.050Z,45.63
2018-07-17T22:00:07.073Z,46.16
2018-07-17T22:02:34.649Z,46.21
2018-07-17T22:05:02.428Z,45.92
2018-07-17T22:07:30.176Z,45.67
2018-07-17T22:09:57.734Z,45.91
2018-07-17T22:12:25.546Z,45.96
2018-07-17T22:14:53.198Z,46.57
2018-07-17T22:17:20.899Z,46.36
2018-07-17T22:19:48.639Z,46.66
2018-07-17T22:22:16.647Z,46.47
2018-07-17T22:24:44.278Z,46.30
2018-07-17T22:27:11.876Z,46.96
2018-07-17T22:29:39.450Z,46.50
2018-07-17T22:32:07.345Z,46.72
2018-07-17T22:34:35.082Z,47.10
2018-07-17T22:37:07.659Z,46.84
2018-07-17T22:39:35.467Z,47.19
2018-07-17T22:42:03.038Z,46.95
2018-07-17T22:44:30.693Z,46.89
2018-07-17T22:46:58.417Z,47.11
2018-07-17T22:49:26.006Z,47.24
2018-07-17T22:51:54.057Z,47.59
2018-07-17T22:54:21.704Z,47.94
2018-07-17T22:56:49.253Z,47.99
2018-07-17T22:59:17.862Z,47.89
2018-07-17T23:01:45.908Z,48.08
2018-07-17T23:04:13.468Z,47.77
2018-07-17T23:06:41.122Z,47.63
2018-07-17T23:09:09.585Z,47.98
2018-07-17T23:11:37.824Z,47.69
2018-07-17T23:14:05.475Z,47.81
2018-07-17T23:16:33.301Z,48.31
2018-07-17T23:19:00.849Z,48.21
2018-07-17T23:21:28.470Z,48.49
2018-07-17T23:23:56.157Z,48.06
2018-07-17T23:26:23.710Z,48.19
2018-07-17T23:28:51.471Z,48.46
2018-07-17T23:31:19.339Z,48.28
2018-07-17T23:33:46.955Z,48.65
2018-07-17T23:36:14.502Z,49.23
2018-07-17T23:38:42.288Z,49.11
2018-07-17T23:41:09.834Z,49.50
2018-07-17T23:43:37.401Z,49.45
2018-07-17T23:46:05.117Z,49.73
2018-07-17T23:48:32.649Z,49.28
2018-07-17T23:51:00.462Z,49.94
2018-07-17T23:53:28.400Z,49.79
2018-07-17T23:55:55.970Z,50.21
2018-07-17T23:58:23.706Z,50.21
